Terminal Aerodrome Forecast
Issued by NWS Binghamton, NY

Home | Current Version | Previous Version | Text Only | Print | Product List | Glossary On
Versions: 1 2 3 4 5 6 7 8 9 10 11 12 13 14 15 16 17
000
FTUS41 KBGM 231300 AAA
TAFSYR
TAF AMD
KSYR 231352Z 2314/2412 32015G25KT P6SM SCT015 OVC025
      TEMPO 2314/2318 -SHRA OVC015
     FM231800 32015G25KT P6SM SCT025 OVC035
     FM232200 32015G25KT P6SM BKN045
     FM240200 31012KT P6SM SKC=

USA.gov is the U.S. government's official web portal to all federal, state and local government web resources and services.